createdAt,value
2022-09-09T00:01:06.224Z,74.85
2022-09-09T00:03:46.351Z,75.33
2022-09-09T00:06:29.266Z,75.25
2022-09-09T00:08:56.203Z,75.21
2022-09-09T00:11:31.321Z,75.25
2022-09-09T00:14:01.648Z,74.62
2022-09-09T00:16:31.989Z,75.18
2022-09-09T00:19:16.583Z,75.41
2022-09-09T00:21:55.174Z,75.30
2022-09-09T00:24:30.450Z,75.27
2022-09-09T00:27:02.548Z,75.26
2022-09-09T00:29:33.541Z,74.82
2022-09-09T00:32:10.748Z,74.81
2022-09-09T00:35:08.423Z,74.94
2022-09-09T00:37:41.932Z,74.57
2022-09-09T00:40:31.311Z,75.01
2022-09-09T00:43:12.247Z,74.89
2022-09-09T00:45:40.480Z,74.78
2022-09-09T00:48:17.618Z,74.66
2022-09-09T00:50:51.142Z,74.51
2022-09-09T00:53:31.511Z,74.33
2022-09-09T00:56:01.460Z,74.87
2022-09-09T00:58:28.899Z,74.87
2022-09-09T01:01:04.420Z,75.07
2022-09-09T01:03:34.635Z,75.05
2022-09-09T01:06:12.787Z,74.94
2022-09-09T01:08:57.959Z,75.28
2022-09-09T01:11:33.378Z,75.04
2022-09-09T01:14:05.011Z,75.29
2022-09-09T01:16:35.441Z,74.91
2022-09-09T01:19:03.970Z,75.25
2022-09-09T01:21:40.706Z,75.14
2022-09-09T01:24:26.405Z,75.21
2022-09-09T01:27:06.656Z,75.14
2022-09-09T01:29:33.947Z,75.19
2022-09-09T01:32:02.021Z,74.73
2022-09-09T01:34:32.314Z,75.14
2022-09-09T01:37:00.097Z,75.00
2022-09-09T01:39:27.759Z,75.12
2022-09-09T01:42:10.111Z,74.97
2022-09-09T01:44:37.888Z,74.82
2022-09-09T01:47:05.277Z,75.21
2022-09-09T01:49:34.084Z,74.79
2022-09-09T01:52:09.284Z,75.07
2022-09-09T01:54:39.197Z,74.68
2022-09-09T01:57:20.681Z,75.01
2022-09-09T01:59:59.893Z,74.77
2022-09-09T02:02:49.244Z,74.95
2022-09-09T02:05:33.044Z,74.94
2022-09-09T02:08:04.518Z,75.05
2022-09-09T02:10:44.803Z,74.89
2022-09-09T02:13:26.464Z,75.09
2022-09-09T02:15:56.797Z,75.00
2022-09-09T02:18:39.099Z,75.14
2022-09-09T02:21:07.698Z,75.27
2022-09-09T02:23:35.805Z,75.49
2022-09-09T02:26:08.904Z,75.21
2022-09-09T02:28:36.510Z,75.83
2022-09-09T02:31:03.396Z,76.17
2022-09-09T02:33:43.118Z,75.94
2022-09-09T02:36:11.892Z,75.88
2022-09-09T02:38:43.088Z,75.95
2022-09-09T02:41:13.722Z,76.55
2022-09-09T02:43:41.007Z,76.35
2022-09-09T02:46:15.780Z,76.51
2022-09-09T02:48:57.798Z,76.56
2022-09-09T02:51:37.240Z,76.70
2022-09-09T02:54:05.409Z,77.17
2022-09-09T02:56:34.783Z,76.65
2022-09-09T02:59:05.155Z,77.01
2022-09-09T03:01:33.602Z,76.81
2022-09-09T03:04:00.646Z,77.27
2022-09-09T03:06:28.358Z,76.43
2022-09-09T03:09:04.204Z,76.54
2022-09-09T03:11:31.171Z,76.60
2022-09-09T03:13:58.803Z,76.96
2022-09-09T03:16:27.418Z,76.57
2022-09-09T03:18:55.346Z,76.60
2022-09-09T03:21:23.063Z,76.41
2022-09-09T03:23:49.997Z,76.46
2022-09-09T03:26:16.794Z,76.88
2022-09-09T03:28:46.460Z,76.50
2022-09-09T03:31:17.096Z,76.76
2022-09-09T03:33:45.140Z,77.00
2022-09-09T03:36:15.021Z,76.85
2022-09-09T03:38:42.149Z,76.72
2022-09-09T03:41:09.918Z,76.99
2022-09-09T03:43:38.657Z,76.72
2022-09-09T03:46:05.754Z,76.63
2022-09-09T03:48:33.129Z,76.93
2022-09-09T03:51:02.239Z,76.61
2022-09-09T03:53:31.684Z,76.09
2022-09-09T03:56:01.779Z,75.83
2022-09-09T03:58:30.672Z,75.28
2022-09-09T04:01:04.578Z,75.14
2022-09-09T04:03:31.589Z,75.00
2022-09-09T04:05:59.263Z,74.70
2022-09-09T04:08:28.969Z,74.00
2022-09-09T04:10:59.019Z,73.55
2022-09-09T04:13:27.540Z,72.99
2022-09-09T04:15:58.233Z,72.88
2022-09-09T04:18:25.933Z,72.58
2022-09-09T04:20:53.809Z,72.20
2022-09-09T04:23:25.287Z,72.22
2022-09-09T04:25:53.535Z,71.98
2022-09-09T04:28:21.138Z,71.38
2022-09-09T04:30:48.855Z,71.07
2022-09-09T04:33:15.936Z,70.55
2022-09-09T04:35:49.828Z,70.69
2022-09-09T04:38:19.274Z,69.77
2022-09-09T04:40:49.858Z,69.38
2022-09-09T04:43:16.701Z,68.95
2022-09-09T04:45:45.442Z,68.13
2022-09-09T04:48:12.215Z,68.77
2022-09-09T04:50:39.058Z,68.76
2022-09-09T04:53:06.621Z,68.53
2022-09-09T04:55:36.141Z,67.36
2022-09-09T04:58:06.870Z,67.37
2022-09-09T05:00:35.018Z,66.70
2022-09-09T05:03:05.471Z,66.81
2022-09-09T05:05:35.286Z,66.69
2022-09-09T05:08:03.691Z,65.91
2022-09-09T05:10:30.525Z,66.29
2022-09-09T05:12:58.886Z,65.34
2022-09-09T05:15:28.649Z,64.81
2022-09-09T05:18:02.258Z,65.03
2022-09-09T05:20:32.190Z,63.70
2022-09-09T05:22:59.625Z,64.30
2022-09-09T05:25:29.598Z,64.00
2022-09-09T05:27:57.454Z,61.88
2022-09-09T05:30:27.386Z,62.77
2022-09-09T05:32:57.064Z,62.37
2022-09-09T05:35:24.082Z,62.90
2022-09-09T05:37:50.941Z,62.32
2022-09-09T05:40:18.110Z,62.10
2022-09-09T05:42:45.462Z,62.14
2022-09-09T05:45:12.795Z,61.77
2022-09-09T05:47:39.785Z,61.45
2022-09-09T05:50:09.701Z,61.64
2022-09-09T05:52:39.972Z,61.28
2022-09-09T05:55:08.861Z,61.34
2022-09-09T05:57:36.957Z,61.05
2022-09-09T06:00:04.604Z,60.51
2022-09-09T06:02:42.598Z,61.34
2022-09-09T06:05:12.827Z,60.69
2022-09-09T06:07:43.133Z,60.47
2022-09-09T06:10:10.469Z,60.42
2022-09-09T06:12:39.952Z,60.43
2022-09-09T06:15:10.321Z,59.66
2022-09-09T06:17:37.424Z,59.62
2022-09-09T06:20:04.316Z,58.98
2022-09-09T06:22:32.744Z,58.90
2022-09-09T06:25:02.242Z,58.09
2022-09-09T06:27:30.390Z,58.20
2022-09-09T06:29:57.119Z,57.33
2022-09-09T06:32:24.204Z,56.90
2022-09-09T06:34:51.359Z,57.30
2022-09-09T06:37:18.300Z,55.61
2022-09-09T06:39:49.407Z,54.28
2022-09-09T06:42:16.803Z,54.83
2022-09-09T06:44:49.652Z,53.76
2022-09-09T06:47:26.222Z,54.10
2022-09-09T06:49:54.281Z,53.21
2022-09-09T06:52:21.227Z,52.90
2022-09-09T06:54:48.627Z,53.06
2022-09-09T06:57:36.022Z,50.56
2022-09-09T07:00:04.694Z,50.04
2022-09-09T07:02:31.708Z,49.47
2022-09-09T07:04:59.810Z,47.44
2022-09-09T07:07:29.174Z,47.77
2022-09-09T07:10:01.280Z,47.09
2022-09-09T07:12:32.766Z,47.01
2022-09-09T07:15:03.786Z,46.37
2022-09-09T07:17:31.789Z,46.70
2022-09-09T07:20:00.635Z,45.60
2022-09-09T07:22:31.676Z,46.22
2022-09-09T07:25:03.346Z,45.85
2022-09-09T07:27:31.219Z,44.36
2022-09-09T07:29:59.008Z,45.60
2022-09-09T07:32:31.493Z,46.08
2022-09-09T07:35:00.029Z,45.61
2022-09-09T07:37:30.395Z,44.81
2022-09-09T07:39:58.127Z,44.27
2022-09-09T07:42:35.084Z,44.16
2022-09-09T07:45:02.679Z,43.04
2022-09-09T07:47:30.456Z,43.13
2022-09-09T07:49:57.411Z,44.56
2022-09-09T07:52:30.528Z,44.24
2022-09-09T07:55:03.250Z,45.02
2022-09-09T07:57:31.766Z,45.36
2022-09-09T07:59:58.495Z,45.39
2022-09-09T08:02:26.964Z,45.43
2022-09-09T08:04:53.749Z,45.30
2022-09-09T08:07:22.589Z,45.17
2022-09-09T08:09:55.485Z,44.69
2022-09-09T08:12:26.953Z,44.42
2022-09-09T08:14:55.874Z,44.73
2022-09-09T08:17:25.458Z,45.09
2022-09-09T08:19:52.641Z,43.83
2022-09-09T08:22:23.500Z,42.93
2022-09-09T08:24:50.841Z,41.91
2022-09-09T08:27:18.370Z,41.04
2022-09-09T08:29:45.713Z,41.86
2022-09-09T08:32:12.541Z,42.54
2022-09-09T08:34:46.471Z,42.55
2022-09-09T08:37:21.204Z,43.83
2022-09-09T08:39:54.039Z,43.88
2022-09-09T08:42:29.373Z,44.13
2022-09-09T08:45:01.313Z,43.75
2022-09-09T08:47:43.725Z,43.57
2022-09-09T08:50:25.876Z,42.69
2022-09-09T08:53:01.869Z,41.46
2022-09-09T08:55:39.941Z,41.92
2022-09-09T08:58:13.242Z,41.70
2022-09-09T09:00:55.329Z,41.37
2022-09-09T09:03:42.661Z,42.84
2022-09-09T09:06:23.876Z,42.92
2022-09-09T09:09:03.349Z,43.15
2022-09-09T09:12:04.116Z,42.29
2022-09-09T09:14:38.863Z,41.46
2022-09-09T09:17:14.237Z,41.20
2022-09-09T09:19:43.624Z,40.32
2022-09-09T09:22:32.074Z,39.02
2022-09-09T09:25:24.338Z,39.98
2022-09-09T09:28:06.871Z,40.77
2022-09-09T09:30:48.809Z,40.72
2022-09-09T09:33:25.295Z,39.77
2022-09-09T09:35:52.722Z,40.41
2022-09-09T09:41:11.276Z,41.02
2022-09-09T09:43:41.030Z,41.29
2022-09-09T09:46:24.674Z,41.04
2022-09-09T09:49:07.246Z,40.22
2022-09-09T09:51:35.746Z,40.24
2022-09-09T09:54:10.010Z,40.83
2022-09-09T09:56:38.723Z,40.37
2022-09-09T09:59:23.694Z,40.65
2022-09-09T10:02:11.939Z,40.70
2022-09-09T10:04:40.870Z,40.74
2022-09-09T10:07:35.823Z,40.87
2022-09-09T10:10:02.917Z,40.18
2022-09-09T10:12:47.221Z,39.14
2022-09-09T10:15:26.441Z,38.45
2022-09-09T10:18:08.400Z,38.11
2022-09-09T10:20:41.131Z,38.35
2022-09-09T10:23:26.366Z,39.11
2022-09-09T10:25:59.327Z,39.59
2022-09-09T10:28:38.530Z,39.84
2022-09-09T10:31:26.318Z,39.05
2022-09-09T10:34:12.537Z,38.20
2022-09-09T10:36:43.143Z,37.91
2022-09-09T10:39:15.933Z,38.13
2022-09-09T10:41:46.648Z,38.43
2022-09-09T10:44:18.605Z,38.46
2022-09-09T10:47:08.275Z,38.59
2022-09-09T10:50:03.191Z,38.25
2022-09-09T10:52:49.847Z,38.30
2022-09-09T10:55:21.013Z,37.68
2022-09-09T10:57:49.928Z,37.72
2022-09-09T11:00:21.609Z,37.42
2022-09-09T11:02:59.777Z,37.05
2022-09-09T11:05:29.695Z,36.87
2022-09-09T11:07:59.364Z,36.60
2022-09-09T11:10:43.790Z,36.57
2022-09-09T11:13:16.865Z,36.39
2022-09-09T11:15:45.826Z,36.56
2022-09-09T11:18:15.010Z,36.58
2022-09-09T11:20:42.579Z,36.76
2022-09-09T11:23:12.453Z,37.23
2022-09-09T11:26:05.989Z,37.53
2022-09-09T11:28:32.944Z,38.12
2022-09-09T11:31:18.812Z,37.19
2022-09-09T11:34:02.184Z,37.35
2022-09-09T11:36:54.045Z,37.43
2022-09-09T11:39:36.450Z,37.66
2022-09-09T11:42:15.697Z,38.11
2022-09-09T11:44:43.326Z,38.24
2022-09-09T11:47:20.659Z,38.54
2022-09-09T11:49:47.742Z,38.74
2022-09-09T11:52:22.656Z,38.81
2022-09-09T11:54:50.614Z,38.48
2022-09-09T11:57:35.970Z,37.89
2022-09-09T12:00:05.760Z,37.32
2022-09-09T12:02:49.490Z,36.73
2022-09-09T12:05:16.794Z,36.41
2022-09-09T12:08:04.571Z,35.66
2022-09-09T12:10:37.088Z,36.29
2022-09-09T12:13:21.124Z,37.28
2022-09-09T12:15:49.484Z,37.81
2022-09-09T12:18:23.711Z,37.59
2022-09-09T12:20:58.141Z,37.34
2022-09-09T12:23:26.309Z,37.38
2022-09-09T12:26:01.988Z,38.11
2022-09-09T12:28:43.763Z,38.41
2022-09-09T12:31:24.426Z,38.74
2022-09-09T12:33:53.845Z,39.50
2022-09-09T12:36:28.178Z,39.91
2022-09-09T12:38:58.038Z,40.19
2022-09-09T12:41:26.418Z,40.59
2022-09-09T12:44:04.265Z,40.85
2022-09-09T12:46:43.145Z,40.96
2022-09-09T12:49:26.440Z,41.04
2022-09-09T12:51:53.575Z,40.40
2022-09-09T12:54:20.800Z,39.81
2022-09-09T12:56:49.483Z,39.13
2022-09-09T12:59:27.806Z,38.97
2022-09-09T13:01:59.836Z,39.37
2022-09-09T13:04:26.948Z,39.98
2022-09-09T13:06:53.601Z,40.06
2022-09-09T13:09:20.737Z,40.39
2022-09-09T13:11:51.282Z,40.55
2022-09-09T13:14:44.496Z,40.36
2022-09-09T13:17:25.719Z,39.79
2022-09-09T13:19:54.111Z,39.42
2022-09-09T13:22:22.415Z,39.85
2022-09-09T13:24:59.634Z,39.97
2022-09-09T13:27:49.192Z,40.27
2022-09-09T13:30:27.097Z,40.10
2022-09-09T13:33:12.199Z,40.58
2022-09-09T13:35:50.349Z,41.13
2022-09-09T13:38:17.655Z,41.33
2022-09-09T13:40:58.713Z,41.42
2022-09-09T13:43:27.254Z,41.65
2022-09-09T13:45:59.043Z,41.65
2022-09-09T13:48:26.846Z,41.69
2022-09-09T13:50:58.200Z,41.63
2022-09-09T13:53:25.330Z,41.46
2022-09-09T13:55:53.433Z,41.23
2022-09-09T13:58:20.831Z,41.50
2022-09-09T14:00:48.339Z,41.74
2022-09-09T14:03:15.074Z,41.86
2022-09-09T14:05:43.377Z,42.37
2022-09-09T14:08:15.957Z,42.28
2022-09-09T14:10:43.006Z,42.36
2022-09-09T14:13:09.849Z,42.25
2022-09-09T14:15:36.887Z,41.97
2022-09-09T14:18:03.856Z,41.95
2022-09-09T14:20:30.772Z,41.48
2022-09-09T14:23:03.236Z,40.96
2022-09-09T14:25:30.486Z,41.08
2022-09-09T14:27:57.788Z,40.77
2022-09-09T14:30:24.695Z,40.67
2022-09-09T14:32:51.542Z,40.95
2022-09-09T14:35:19.405Z,40.84
2022-09-09T14:37:46.122Z,40.83
2022-09-09T14:40:13.111Z,41.36
2022-09-09T14:42:40.034Z,41.41
2022-09-09T14:45:33.935Z,42.02
2022-09-09T14:48:01.195Z,42.29
2022-09-09T14:50:28.051Z,42.65
2022-09-09T14:53:00.832Z,42.80
2022-09-09T14:55:29.830Z,43.06
2022-09-09T14:57:56.579Z,43.41
2022-09-09T15:00:23.554Z,43.07
2022-09-09T15:02:55.679Z,43.44
2022-09-09T15:05:23.033Z,43.61
2022-09-09T15:07:50.047Z,43.69
2022-09-09T15:10:18.487Z,43.63
2022-09-09T15:12:45.484Z,43.98
2022-09-09T15:15:14.045Z,44.20
2022-09-09T15:17:43.995Z,44.46
2022-09-09T15:20:11.127Z,44.59
2022-09-09T15:22:38.977Z,44.60
2022-09-09T15:25:06.982Z,44.88
2022-09-09T15:27:35.253Z,44.70
2022-09-09T15:30:02.059Z,45.32
2022-09-09T15:32:30.557Z,45.14
2022-09-09T15:34:59.803Z,45.62
2022-09-09T15:37:26.558Z,45.37
2022-09-09T15:39:53.688Z,45.52
2022-09-09T15:42:20.489Z,45.54
2022-09-09T15:44:47.133Z,46.27
2022-09-09T15:47:14.431Z,46.21
2022-09-09T15:49:41.343Z,46.21
2022-09-09T15:52:10.523Z,46.83
2022-09-09T15:54:39.856Z,46.81
2022-09-09T15:57:07.999Z,47.33
2022-09-09T15:59:35.291Z,47.29
2022-09-09T16:02:02.562Z,47.61
2022-09-09T16:04:30.106Z,47.74
2022-09-09T16:06:59.507Z,48.20
2022-09-09T16:09:27.751Z,48.36
2022-09-09T16:11:57.483Z,48.36
2022-09-09T16:14:24.183Z,48.08
2022-09-09T16:16:51.179Z,48.97
2022-09-09T16:19:17.895Z,49.30
2022-09-09T16:21:45.671Z,49.35
2022-09-09T16:24:13.933Z,49.08
2022-09-09T16:26:42.937Z,49.15
2022-09-09T16:29:09.895Z,49.86
2022-09-09T16:31:37.224Z,49.78
2022-09-09T16:34:07.147Z,50.01
2022-09-09T16:36:35.415Z,50.50
2022-09-09T16:39:06.221Z,49.80
2022-09-09T16:41:33.405Z,50.36
2022-09-09T16:44:03.455Z,50.30
2022-09-09T16:46:31.598Z,50.77
2022-09-09T16:49:01.679Z,50.41
2022-09-09T16:51:30.087Z,50.61
2022-09-09T16:53:59.209Z,50.98
2022-09-09T16:56:27.586Z,51.04
2022-09-09T16:58:56.741Z,51.29
2022-09-09T17:01:24.597Z,51.26
2022-09-09T17:04:00.620Z,51.26
2022-09-09T17:06:30.270Z,51.72
2022-09-09T17:09:02.360Z,52.00
2022-09-09T17:11:30.978Z,51.66
2022-09-09T17:14:01.635Z,52.26
2022-09-09T17:16:30.695Z,52.75
2022-09-09T17:18:59.709Z,52.40
2022-09-09T17:21:27.802Z,52.59
2022-09-09T17:23:55.435Z,53.24
2022-09-09T17:26:24.005Z,52.98
2022-09-09T17:28:52.042Z,53.37
2022-09-09T17:31:20.813Z,53.22
2022-09-09T17:33:49.683Z,53.05
2022-09-09T17:36:18.221Z,53.66
2022-09-09T17:38:45.490Z,53.41
2022-09-09T17:41:15.521Z,53.18
2022-09-09T17:43:43.458Z,53.62
2022-09-09T17:46:15.021Z,53.50
2022-09-09T17:48:43.150Z,54.02
2022-09-09T17:51:12.393Z,54.32
2022-09-09T17:53:40.867Z,54.24
2022-09-09T17:56:09.114Z,54.27
2022-09-09T17:58:36.761Z,54.15
2022-09-09T18:01:07.927Z,54.38
2022-09-09T18:03:37.539Z,54.76
2022-09-09T18:06:05.933Z,54.83
2022-09-09T18:08:36.599Z,54.96
2022-09-09T18:11:04.548Z,54.78
2022-09-09T18:13:31.533Z,54.93
2022-09-09T18:15:58.589Z,55.13
2022-09-09T18:18:25.996Z,54.61
2022-09-09T18:20:59.792Z,54.90
2022-09-09T18:23:27.206Z,54.74
2022-09-09T18:25:53.888Z,54.95
2022-09-09T18:28:25.115Z,55.04
2022-09-09T18:30:52.718Z,55.08
2022-09-09T18:33:20.408Z,55.17
2022-09-09T18:35:48.337Z,55.52
2022-09-09T18:38:17.827Z,55.49
2022-09-09T18:40:44.630Z,54.99
2022-09-09T18:43:12.862Z,55.64
2022-09-09T18:45:39.854Z,55.93
2022-09-09T18:48:06.569Z,55.90
2022-09-09T18:50:34.182Z,55.43
2022-09-09T18:53:01.363Z,55.65
2022-09-09T18:55:29.376Z,56.00
2022-09-09T18:57:58.834Z,55.98
2022-09-09T19:00:26.935Z,56.09
2022-09-09T19:02:57.518Z,56.18
2022-09-09T19:05:24.186Z,56.21
2022-09-09T19:07:51.839Z,56.27
2022-09-09T19:10:21.636Z,56.52
2022-09-09T19:12:48.828Z,56.91
2022-09-09T19:15:16.197Z,57.25
2022-09-09T19:17:43.181Z,57.34
2022-09-09T19:20:10.069Z,57.09
2022-09-09T19:22:36.768Z,56.85
2022-09-09T19:25:04.236Z,57.06
2022-09-09T19:27:30.996Z,56.73
2022-09-09T19:29:57.790Z,57.11
2022-09-09T19:35:12.517Z,56.93
2022-09-09T19:37:39.499Z,57.30
2022-09-09T19:40:08.371Z,57.92
2022-09-09T19:42:35.579Z,57.59
2022-09-09T19:45:02.402Z,58.10
2022-09-09T19:47:30.457Z,58.13
2022-09-09T19:49:57.419Z,58.25
2022-09-09T19:52:25.395Z,58.85
2022-09-09T19:54:52.802Z,58.93
2022-09-09T19:57:20.289Z,58.69
2022-09-09T19:59:47.244Z,58.77
2022-09-09T20:02:15.889Z,59.14
2022-09-09T20:04:43.321Z,59.35
2022-09-09T20:07:10.135Z,59.51
2022-09-09T20:09:37.088Z,59.79
2022-09-09T20:12:04.057Z,59.83
2022-09-09T20:14:30.766Z,60.12
2022-09-09T20:16:57.966Z,60.29
2022-09-09T20:19:24.784Z,60.42
2022-09-09T20:21:52.144Z,60.35
2022-09-09T20:24:19.996Z,60.53
2022-09-09T20:26:48.302Z,60.64
2022-09-09T20:29:16.764Z,60.65
2022-09-09T20:31:44.627Z,60.95
2022-09-09T20:34:18.887Z,60.89
2022-09-09T20:36:46.684Z,61.16
2022-09-09T20:39:18.094Z,61.37
2022-09-09T20:41:45.997Z,61.40
2022-09-09T20:44:15.607Z,61.12
2022-09-09T20:46:49.994Z,61.47
2022-09-09T20:49:18.588Z,61.37
2022-09-09T20:51:45.843Z,61.42
2022-09-09T20:54:16.263Z,61.47
2022-09-09T20:56:44.689Z,61.67
2022-09-09T20:59:14.695Z,61.77
2022-09-09T21:01:42.048Z,62.24
2022-09-09T21:04:09.857Z,61.90
2022-09-09T21:06:37.190Z,62.38
2022-09-09T21:09:04.013Z,62.33
2022-09-09T21:11:30.976Z,62.41
2022-09-09T21:13:59.664Z,62.61
2022-09-09T21:16:27.971Z,62.39
2022-09-09T21:18:54.674Z,62.68
2022-09-09T21:21:22.105Z,62.45
2022-09-09T21:23:50.008Z,62.71
2022-09-09T21:26:19.571Z,62.55
2022-09-09T21:28:46.453Z,63.23
2022-09-09T21:31:17.577Z,63.09
2022-09-09T21:33:44.475Z,62.95
2022-09-09T21:36:12.263Z,63.14
2022-09-09T21:38:42.766Z,63.31
2022-09-09T21:41:13.847Z,62.97
2022-09-09T21:43:44.348Z,63.04
2022-09-09T21:46:12.692Z,63.13
2022-09-09T21:48:39.936Z,63.54
2022-09-09T21:51:08.709Z,63.38
2022-09-09T21:53:35.733Z,63.49
2022-09-09T21:56:03.675Z,63.62
2022-09-09T21:58:30.730Z,63.54
2022-09-09T22:00:57.506Z,63.77
2022-09-09T22:03:24.377Z,64.03
2022-09-09T22:05:53.959Z,64.14
2022-09-09T22:08:21.262Z,64.31
2022-09-09T22:10:48.085Z,63.95
2022-09-09T22:13:15.854Z,64.08
2022-09-09T22:15:43.920Z,63.98
2022-09-09T22:18:11.054Z,64.54
2022-09-09T22:20:42.581Z,64.48
2022-09-09T22:23:10.106Z,64.76
2022-09-09T22:25:37.685Z,64.82
2022-09-09T22:28:05.604Z,64.51
2022-09-09T22:30:32.379Z,64.42
2022-09-09T22:33:01.224Z,64.38
2022-09-09T22:35:27.941Z,64.38
2022-09-09T22:37:55.938Z,64.28
2022-09-09T22:40:23.032Z,64.54
2022-09-09T22:42:52.732Z,64.87
2022-09-09T22:45:20.948Z,65.30
2022-09-09T22:47:47.973Z,65.02
2022-09-09T22:50:14.667Z,65.46
2022-09-09T22:52:41.456Z,64.98
2022-09-09T22:55:09.457Z,65.43
2022-09-09T22:57:37.484Z,65.58
2022-09-09T23:00:08.862Z,65.30
2022-09-09T23:02:40.679Z,65.35
2022-09-09T23:05:08.775Z,65.77
2022-09-09T23:07:36.562Z,65.70
2022-09-09T23:10:05.359Z,65.59
2022-09-09T23:12:32.243Z,65.90
2022-09-09T23:14:59.375Z,65.81
2022-09-09T23:17:26.334Z,65.87
2022-09-09T23:19:56.387Z,65.84
2022-09-09T23:22:24.304Z,65.86
2022-09-09T23:24:54.076Z,65.93
2022-09-09T23:27:21.481Z,65.69
2022-09-09T23:29:49.725Z,65.96
2022-09-09T23:32:16.720Z,65.82
2022-09-09T23:34:45.844Z,65.63
2022-09-09T23:37:13.190Z,65.77
2022-09-09T23:39:40.550Z,66.33
2022-09-09T23:42:11.400Z,65.85
2022-09-09T23:44:38.694Z,65.83
2022-09-09T23:47:06.012Z,65.88
2022-09-09T23:49:33.709Z,66.12
2022-09-09T23:52:05.425Z,65.93
2022-09-09T23:54:32.753Z,66.01
2022-09-09T23:56:59.450Z,66.13
2022-09-09T23:59:26.653Z,66.17
